createdAt,value
2017-09-06T00:00:06.903Z,3.10
2017-09-06T00:02:34.380Z,3.40
2017-09-06T00:05:01.839Z,3.70
2017-09-06T00:07:29.331Z,3.50
2017-09-06T00:09:56.787Z,3.60
2017-09-06T00:12:24.270Z,3.93
2017-09-06T00:14:51.739Z,4.13
2017-09-06T00:17:19.238Z,3.63
2017-09-06T00:19:46.696Z,3.53
2017-09-06T00:22:14.151Z,3.57
2017-09-06T00:24:41.659Z,3.70
2017-09-06T00:27:09.133Z,3.47
2017-09-06T00:29:36.595Z,3.00
2017-09-06T00:32:04.087Z,4.27
2017-09-06T00:34:31.591Z,3.57
2017-09-06T00:36:59.095Z,3.73
2017-09-06T00:39:26.547Z,3.50
2017-09-06T00:41:54.039Z,3.53
2017-09-06T00:44:21.510Z,3.60
2017-09-06T00:46:49.730Z,4.33
2017-09-06T00:49:17.249Z,3.47
2017-09-06T00:51:44.710Z,3.80
2017-09-06T00:54:12.169Z,3.30
2017-09-06T00:56:39.667Z,3.67
2017-09-06T00:59:07.160Z,4.07
2017-09-06T01:01:34.698Z,4.10
2017-09-06T01:04:02.155Z,4.23
2017-09-06T01:06:29.619Z,3.97
2017-09-06T01:08:57.136Z,4.20
2017-09-06T01:11:24.609Z,4.40
2017-09-06T01:13:52.064Z,4.40
2017-09-06T01:16:19.563Z,3.67
2017-09-06T01:18:47.044Z,3.40
2017-09-06T01:21:14.540Z,3.20
2017-09-06T01:23:42.044Z,4.10
2017-09-06T01:26:09.518Z,3.33
2017-09-06T01:28:36.975Z,4.10
2017-09-06T01:31:04.470Z,3.70
2017-09-06T01:33:31.930Z,3.40
2017-09-06T01:35:59.402Z,4.17
2017-09-06T01:38:26.894Z,4.77
2017-09-06T01:40:54.376Z,3.80
2017-09-06T01:43:21.878Z,4.03
2017-09-06T01:45:49.348Z,4.33
2017-09-06T01:48:16.807Z,4.10
2017-09-06T01:50:44.287Z,3.77
2017-09-06T01:53:11.776Z,3.60
2017-09-06T01:55:39.272Z,3.87
2017-09-06T01:58:06.784Z,4.40
2017-09-06T02:00:35.043Z,3.80
2017-09-06T02:03:02.496Z,3.90
2017-09-06T02:05:30.018Z,3.77
2017-09-06T02:07:57.469Z,4.13
2017-09-06T02:10:24.943Z,3.97
2017-09-06T02:12:52.416Z,4.00
2017-09-06T02:15:19.942Z,3.50
2017-09-06T02:17:47.403Z,3.57
2017-09-06T02:20:14.867Z,3.20
2017-09-06T02:22:42.359Z,3.03
2017-09-06T02:25:09.839Z,3.40
2017-09-06T02:27:37.337Z,3.30
2017-09-06T02:30:04.819Z,2.90
2017-09-06T02:32:32.279Z,3.57
2017-09-06T02:34:59.764Z,4.33
2017-09-06T02:37:27.234Z,3.40
2017-09-06T02:39:54.740Z,2.90
2017-09-06T02:42:22.212Z,3.13
2017-09-06T02:44:49.679Z,3.30
2017-09-06T02:47:17.174Z,3.27
2017-09-06T02:49:45.410Z,2.90
2017-09-06T02:52:12.907Z,2.87
2017-09-06T02:54:40.375Z,2.60
2017-09-06T02:57:07.863Z,2.97
2017-09-06T02:59:35.368Z,3.37
2017-09-06T03:02:02.876Z,3.17
2017-09-06T03:04:30.364Z,3.40
2017-09-06T03:06:57.838Z,3.40
2017-09-06T03:09:25.318Z,3.50
2017-09-06T03:11:52.811Z,2.70
2017-09-06T03:14:20.309Z,2.73
2017-09-06T03:16:47.767Z,2.83
2017-09-06T03:19:15.247Z,2.60
2017-09-06T03:21:42.738Z,2.93
2017-09-06T03:24:10.212Z,2.60
2017-09-06T03:26:37.744Z,2.50
2017-09-06T03:29:05.203Z,2.50
2017-09-06T03:31:32.675Z,2.60
2017-09-06T03:34:00.189Z,3.00
2017-09-06T03:36:27.643Z,2.73
2017-09-06T03:38:55.109Z,2.43
2017-09-06T03:41:22.604Z,2.60
2017-09-06T03:43:50.080Z,3.10
2017-09-06T03:46:17.578Z,3.37
2017-09-06T03:48:45.043Z,2.43
2017-09-06T03:51:12.507Z,4.00
2017-09-06T03:53:39.986Z,4.07
2017-09-06T03:56:07.459Z,3.10
2017-09-06T03:58:34.948Z,3.37
2017-09-06T04:01:02.453Z,3.10
2017-09-06T04:03:29.971Z,2.87
2017-09-06T04:05:57.400Z,2.63
2017-09-06T04:08:24.890Z,2.60
2017-09-06T04:10:52.383Z,2.73
2017-09-06T04:13:19.830Z,2.43
2017-09-06T04:15:47.322Z,2.57
2017-09-06T04:18:14.779Z,2.73
2017-09-06T04:20:42.283Z,2.07
2017-09-06T04:23:09.748Z,3.20
2017-09-06T04:25:37.220Z,2.90
2017-09-06T04:28:04.700Z,3.33
2017-09-06T04:30:32.199Z,3.30
2017-09-06T04:32:59.690Z,2.73
2017-09-06T04:35:27.159Z,2.57
2017-09-06T04:37:54.634Z,3.50
2017-09-06T04:40:22.115Z,3.70
2017-09-06T04:42:49.608Z,3.17
2017-09-06T04:45:17.103Z,3.00
2017-09-06T04:47:44.579Z,3.23
2017-09-06T04:50:12.083Z,3.40
2017-09-06T04:52:39.555Z,3.00
2017-09-06T04:55:07.019Z,3.30
2017-09-06T04:57:35.278Z,3.43
2017-09-06T05:00:02.751Z,3.97
2017-09-06T05:02:30.252Z,3.70
2017-09-06T05:04:57.723Z,4.30
2017-09-06T05:07:25.176Z,4.90
2017-09-06T05:09:52.680Z,4.70
2017-09-06T05:12:20.138Z,3.50
2017-09-06T05:14:47.611Z,3.77
2017-09-06T05:17:15.065Z,5.33
2017-09-06T05:19:42.564Z,4.27
2017-09-06T05:22:10.060Z,5.00
2017-09-06T05:24:37.535Z,4.50
2017-09-06T05:27:05.059Z,5.77
2017-09-06T05:29:32.543Z,4.00
2017-09-06T05:32:00.019Z,5.27
2017-09-06T05:34:27.514Z,4.40
2017-09-06T05:36:54.990Z,3.97
2017-09-06T05:39:22.459Z,4.47
2017-09-06T05:41:49.939Z,4.57
2017-09-06T05:44:17.420Z,4.17
2017-09-06T05:46:44.895Z,3.97
2017-09-06T05:49:12.388Z,5.10
2017-09-06T05:51:39.874Z,3.80
2017-09-06T05:54:07.361Z,4.00
2017-09-06T05:56:34.850Z,6.30
2017-09-06T05:59:02.359Z,4.70
2017-09-06T06:01:29.829Z,4.07
2017-09-06T06:03:57.314Z,4.03
2017-09-06T06:06:24.798Z,2.70
2017-09-06T06:08:52.299Z,2.10
2017-09-06T06:11:19.754Z,2.40
2017-09-06T06:13:47.283Z,1.90
2017-09-06T06:16:14.759Z,2.20
2017-09-06T06:18:42.215Z,2.80
2017-09-06T06:21:09.713Z,2.60
2017-09-06T06:23:37.200Z,2.33
2017-09-06T06:26:04.690Z,2.47
2017-09-06T06:28:32.171Z,3.53
2017-09-06T06:30:59.674Z,2.93
2017-09-06T06:33:27.168Z,2.23
2017-09-06T06:35:54.624Z,2.80
2017-09-06T06:38:22.102Z,2.73
2017-09-06T06:40:49.571Z,2.00
2017-09-06T06:43:17.052Z,2.33
2017-09-06T06:45:44.546Z,2.37
2017-09-06T06:48:12.038Z,1.80
2017-09-06T06:50:39.519Z,2.00
2017-09-06T06:53:06.967Z,1.90
2017-09-06T06:55:34.483Z,2.57
2017-09-06T06:58:01.955Z,2.20
2017-09-06T07:00:29.471Z,1.87
2017-09-06T07:02:56.922Z,3.37
2017-09-06T07:05:24.421Z,5.90
2017-09-06T07:07:51.929Z,3.80
2017-09-06T07:10:19.397Z,2.40
2017-09-06T07:12:46.847Z,2.07
2017-09-06T07:15:14.347Z,2.20
2017-09-06T07:17:41.826Z,2.43
2017-09-06T07:20:09.320Z,2.60
2017-09-06T07:22:36.839Z,2.50
2017-09-06T07:25:04.299Z,2.10
2017-09-06T07:27:31.779Z,2.10
2017-09-06T07:29:59.257Z,2.27
2017-09-06T07:32:26.751Z,2.00
2017-09-06T07:34:54.236Z,2.67
2017-09-06T07:37:21.745Z,2.60
2017-09-06T07:39:49.238Z,2.07
2017-09-06T07:42:16.703Z,1.90
2017-09-06T07:44:44.223Z,2.13
2017-09-06T07:47:11.683Z,1.90
2017-09-06T07:49:39.139Z,2.43
2017-09-06T07:52:06.645Z,2.00
2017-09-06T07:54:34.137Z,2.10
2017-09-06T07:57:01.637Z,1.90
2017-09-06T07:59:29.103Z,2.50
2017-09-06T08:01:56.579Z,2.20
2017-09-06T08:04:24.051Z,1.80
2017-09-06T08:06:57.191Z,1.87
2017-09-06T08:09:24.659Z,1.53
2017-09-06T08:11:52.140Z,2.00
2017-09-06T08:14:19.633Z,1.90
2017-09-06T08:16:47.140Z,1.80
2017-09-06T08:19:14.596Z,1.93
2017-09-06T08:21:42.088Z,2.20
2017-09-06T08:24:09.539Z,2.17
2017-09-06T08:26:37.022Z,2.27
2017-09-06T08:29:04.498Z,1.90
2017-09-06T08:31:32.415Z,1.70
2017-09-06T08:33:59.901Z,1.63
2017-09-06T08:36:27.791Z,1.90
2017-09-06T08:38:55.256Z,2.10
2017-09-06T08:41:22.730Z,2.10
2017-09-06T08:43:50.226Z,1.90
2017-09-06T08:46:17.705Z,1.50
2017-09-06T08:48:45.184Z,1.90
2017-09-06T08:51:12.663Z,2.20
2017-09-06T08:53:40.155Z,2.00
2017-09-06T08:56:07.649Z,1.83
2017-09-06T08:58:35.111Z,2.00
2017-09-06T09:01:02.604Z,1.90
2017-09-06T09:03:30.075Z,2.00
2017-09-06T09:05:57.550Z,2.20
2017-09-06T09:08:25.041Z,1.90
2017-09-06T09:10:52.507Z,2.00
2017-09-06T09:13:19.994Z,1.80
2017-09-06T09:15:47.472Z,1.90
2017-09-06T09:18:14.997Z,1.70
2017-09-06T09:20:42.487Z,1.73
2017-09-06T09:23:09.964Z,1.70
2017-09-06T09:25:38.227Z,1.93
2017-09-06T09:28:05.703Z,1.70
2017-09-06T09:30:33.199Z,1.87
2017-09-06T09:33:00.663Z,1.83
2017-09-06T09:35:28.151Z,1.93
2017-09-06T09:37:55.608Z,2.17
2017-09-06T09:40:23.107Z,1.77
2017-09-06T09:42:50.577Z,1.60
2017-09-06T09:45:18.036Z,1.60
2017-09-06T09:47:45.562Z,1.67
2017-09-06T09:50:13.035Z,1.90
2017-09-06T09:52:40.523Z,2.00
2017-09-06T09:55:07.990Z,2.07
2017-09-06T09:57:35.480Z,1.83
2017-09-06T10:00:02.943Z,1.93
2017-09-06T10:02:30.484Z,1.40
2017-09-06T10:04:57.939Z,1.50
2017-09-06T10:07:25.409Z,1.60
2017-09-06T10:09:52.932Z,1.43
2017-09-06T10:12:20.390Z,1.90
2017-09-06T10:14:47.895Z,1.50
2017-09-06T10:17:15.388Z,1.27
2017-09-06T10:19:42.882Z,1.30
2017-09-06T10:22:10.363Z,1.60
2017-09-06T10:24:37.831Z,2.00
2017-09-06T10:27:05.307Z,1.90
2017-09-06T10:29:32.770Z,1.80
2017-09-06T10:32:00.254Z,2.07
2017-09-06T10:34:27.727Z,1.50
2017-09-06T10:36:55.246Z,1.47
2017-09-06T10:39:22.706Z,1.90
2017-09-06T10:41:50.200Z,1.70
2017-09-06T10:44:17.688Z,1.50
2017-09-06T10:46:45.159Z,1.57
2017-09-06T10:49:12.647Z,1.60
2017-09-06T10:51:40.104Z,1.63
2017-09-06T10:54:07.599Z,1.70
2017-09-06T10:56:35.091Z,1.50
2017-09-06T10:59:02.566Z,1.60
2017-09-06T11:01:30.067Z,2.03
2017-09-06T11:03:57.527Z,1.30
2017-09-06T11:06:24.987Z,2.63
2017-09-06T11:08:52.489Z,1.40
2017-09-06T11:11:20.003Z,1.60
2017-09-06T11:13:47.500Z,1.67
2017-09-06T11:16:14.988Z,1.10
2017-09-06T11:18:42.457Z,1.50
2017-09-06T11:21:09.948Z,1.60
2017-09-06T11:23:37.403Z,1.60
2017-09-06T11:26:04.919Z,1.50
2017-09-06T11:28:32.371Z,1.50
2017-09-06T11:30:59.830Z,1.30
2017-09-06T11:33:27.327Z,1.50
2017-09-06T11:35:54.782Z,1.30
2017-09-06T11:38:22.286Z,1.57
2017-09-06T11:40:49.759Z,1.20
2017-09-06T11:43:17.240Z,1.73
2017-09-06T11:45:44.736Z,1.17
2017-09-06T11:48:12.299Z,1.17
2017-09-06T11:50:39.802Z,1.80
2017-09-06T11:53:07.259Z,1.20
2017-09-06T11:55:34.763Z,1.40
2017-09-06T11:58:02.246Z,1.23
2017-09-06T12:00:29.744Z,1.20
2017-09-06T12:02:57.231Z,1.30
2017-09-06T12:05:24.708Z,1.20
2017-09-06T12:07:53.134Z,1.23
2017-09-06T12:10:20.627Z,1.10
2017-09-06T12:12:48.087Z,1.30
2017-09-06T12:15:15.602Z,1.17
2017-09-06T12:17:43.093Z,1.20
2017-09-06T12:20:10.580Z,1.20
2017-09-06T12:22:38.111Z,1.20
2017-09-06T12:25:05.580Z,1.30
2017-09-06T12:27:33.048Z,1.40
2017-09-06T12:30:00.526Z,1.10
2017-09-06T12:32:28.046Z,1.37
2017-09-06T12:34:55.504Z,1.50
2017-09-06T12:37:22.978Z,1.30
2017-09-06T12:39:50.471Z,1.27
2017-09-06T12:42:17.939Z,1.37
2017-09-06T12:44:45.402Z,1.30
2017-09-06T12:47:12.915Z,1.17
2017-09-06T12:49:40.404Z,1.00
2017-09-06T12:52:07.854Z,1.13
2017-09-06T12:54:35.358Z,1.10
2017-09-06T12:57:02.813Z,1.10
2017-09-06T12:59:30.300Z,1.07
2017-09-06T13:01:57.791Z,1.10
2017-09-06T13:04:25.287Z,1.00
2017-09-06T13:06:52.746Z,1.17
2017-09-06T13:09:20.206Z,1.00
2017-09-06T13:11:47.692Z,1.13
2017-09-06T13:14:15.157Z,1.00
2017-09-06T13:16:42.711Z,1.10
2017-09-06T13:19:10.167Z,1.20
2017-09-06T13:21:37.664Z,1.10
2017-09-06T13:24:05.168Z,1.10
2017-09-06T13:26:32.630Z,1.43
2017-09-06T13:29:00.132Z,1.23
2017-09-06T13:31:27.596Z,1.10
2017-09-06T13:33:55.064Z,1.37
2017-09-06T13:36:23.323Z,1.30
2017-09-06T13:38:50.811Z,1.40
2017-09-06T13:41:19.080Z,1.20
2017-09-06T13:43:46.574Z,1.30
2017-09-06T13:46:14.034Z,1.27
2017-09-06T13:48:41.527Z,1.10
2017-09-06T13:51:09.025Z,1.30
2017-09-06T13:53:36.515Z,1.30
2017-09-06T13:56:03.993Z,1.90
2017-09-06T13:58:31.515Z,1.43
2017-09-06T14:00:59.022Z,1.10
2017-09-06T14:03:26.492Z,1.17
2017-09-06T14:05:53.998Z,2.13
2017-09-06T14:08:21.471Z,1.10
2017-09-06T14:10:48.997Z,1.33
2017-09-06T14:13:16.452Z,2.80
2017-09-06T14:15:43.934Z,1.30
2017-09-06T14:18:11.442Z,1.20
2017-09-06T14:20:38.924Z,1.30
2017-09-06T14:23:06.438Z,1.30
2017-09-06T14:25:33.902Z,1.30
2017-09-06T14:28:01.373Z,1.40
2017-09-06T14:30:28.875Z,1.37
2017-09-06T14:32:56.360Z,1.40
2017-09-06T14:35:23.870Z,1.80
2017-09-06T14:37:51.336Z,1.43
2017-09-06T14:40:19.610Z,1.50
2017-09-06T14:42:47.091Z,1.90
2017-09-06T14:45:14.553Z,1.50
2017-09-06T14:47:42.038Z,1.40
2017-09-06T14:50:09.490Z,2.10
2017-09-06T14:52:36.979Z,1.90
2017-09-06T14:55:04.493Z,2.10
2017-09-06T14:57:31.951Z,2.00
2017-09-06T14:59:59.439Z,2.10
2017-09-06T15:02:26.950Z,4.20
2017-09-06T15:04:54.479Z,1.50
2017-09-06T15:07:21.957Z,1.33
2017-09-06T15:09:49.444Z,1.30
2017-09-06T15:12:16.932Z,2.17
2017-09-06T15:14:44.410Z,2.20
2017-09-06T15:17:11.892Z,1.90
2017-09-06T15:19:39.388Z,2.30
2017-09-06T15:22:06.889Z,1.90
2017-09-06T15:24:34.367Z,1.57
2017-09-06T15:27:01.861Z,2.20
2017-09-06T15:29:29.362Z,1.60
2017-09-06T15:31:56.865Z,2.30
2017-09-06T15:34:24.315Z,1.77
2017-09-06T15:36:51.816Z,1.50
2017-09-06T15:39:19.319Z,1.60
2017-09-06T15:41:46.835Z,2.20
2017-09-06T15:44:14.287Z,1.70
2017-09-06T15:46:41.750Z,1.63
2017-09-06T15:49:09.242Z,2.00
2017-09-06T15:51:37.543Z,1.40
2017-09-06T15:54:05.008Z,1.40
2017-09-06T15:56:32.511Z,1.80
2017-09-06T15:59:00.018Z,1.40
2017-09-06T16:01:27.487Z,1.50
2017-09-06T16:03:55.057Z,1.57
2017-09-06T16:06:22.518Z,1.57
2017-09-06T16:08:49.999Z,1.50
2017-09-06T16:11:17.516Z,1.73
2017-09-06T16:13:45.004Z,1.60
2017-09-06T16:16:12.534Z,1.70
2017-09-06T16:18:39.992Z,1.60
2017-09-06T16:21:07.501Z,1.60
2017-09-06T16:23:34.967Z,1.60
2017-09-06T16:26:02.438Z,2.03
2017-09-06T16:28:29.936Z,2.00
2017-09-06T16:30:57.391Z,1.73
2017-09-06T16:33:24.888Z,2.10
2017-09-06T16:35:52.379Z,1.60
2017-09-06T16:38:19.874Z,2.33
2017-09-06T16:40:47.344Z,2.17
2017-09-06T16:43:14.830Z,2.00
2017-09-06T16:45:42.326Z,2.10
2017-09-06T16:48:09.820Z,1.80
2017-09-06T16:50:37.315Z,1.93
2017-09-06T16:53:04.808Z,3.37
2017-09-06T16:55:32.279Z,2.80
2017-09-06T16:57:59.767Z,2.70
2017-09-06T17:00:27.239Z,2.30
2017-09-06T17:02:54.707Z,2.83
2017-09-06T17:05:22.211Z,3.00
2017-09-06T17:07:49.668Z,2.87
2017-09-06T17:10:17.234Z,2.43
2017-09-06T17:12:44.707Z,2.83
2017-09-06T17:15:12.171Z,2.53
2017-09-06T17:17:39.675Z,2.50
2017-09-06T17:20:07.135Z,2.30
2017-09-06T17:22:35.418Z,2.50
2017-09-06T17:25:02.883Z,2.00
2017-09-06T17:27:30.354Z,2.93
2017-09-06T17:29:57.868Z,2.27
2017-09-06T17:32:25.340Z,2.40
2017-09-06T17:34:52.820Z,2.17
2017-09-06T17:37:21.061Z,2.77
2017-09-06T17:39:48.526Z,2.27
2017-09-06T17:42:16.047Z,2.40
2017-09-06T17:44:43.506Z,2.50
2017-09-06T17:47:10.975Z,2.17
2017-09-06T17:49:38.487Z,2.40
2017-09-06T17:52:05.962Z,1.83
2017-09-06T17:54:33.460Z,3.00
2017-09-06T17:57:00.935Z,2.33
2017-09-06T17:59:28.429Z,2.67
2017-09-06T18:01:55.912Z,2.77
2017-09-06T18:04:23.379Z,2.70
2017-09-06T18:06:50.872Z,2.60
2017-09-06T18:09:18.351Z,2.10
2017-09-06T18:11:45.855Z,2.50
2017-09-06T18:14:13.381Z,2.53
2017-09-06T18:16:40.870Z,2.40
2017-09-06T18:19:08.405Z,2.93
2017-09-06T18:21:35.872Z,3.07
2017-09-06T18:24:03.387Z,2.20
2017-09-06T18:26:30.892Z,3.03
2017-09-06T18:28:58.393Z,2.20
2017-09-06T18:31:25.881Z,2.60
2017-09-06T18:33:53.420Z,2.80
2017-09-06T18:36:20.930Z,2.80
2017-09-06T18:38:48.425Z,2.80
2017-09-06T18:41:15.963Z,3.20
2017-09-06T18:43:43.436Z,2.53
2017-09-06T18:46:10.958Z,2.47
2017-09-06T18:48:38.420Z,2.50
2017-09-06T18:51:05.944Z,3.00
2017-09-06T18:53:33.422Z,2.63
2017-09-06T18:56:00.886Z,2.13
2017-09-06T18:58:28.395Z,2.50
2017-09-06T19:00:55.904Z,2.20
2017-09-06T19:03:23.373Z,2.50
2017-09-06T19:05:50.875Z,2.60
2017-09-06T19:08:18.351Z,2.27
2017-09-06T19:10:45.856Z,2.30
2017-09-06T19:13:13.352Z,2.23
2017-09-06T19:15:40.823Z,2.87
2017-09-06T19:18:08.355Z,3.10
2017-09-06T19:20:35.839Z,2.50
2017-09-06T19:23:03.296Z,2.80
2017-09-06T19:25:30.813Z,2.20
2017-09-06T19:27:58.291Z,2.73
2017-09-06T19:30:25.794Z,2.30
2017-09-06T19:32:53.315Z,2.97
2017-09-06T19:35:20.820Z,2.77
2017-09-06T19:37:48.351Z,3.13
2017-09-06T19:40:15.876Z,3.43
2017-09-06T19:42:43.353Z,2.63
2017-09-06T19:45:10.803Z,2.43
2017-09-06T19:47:38.317Z,2.73
2017-09-06T19:50:05.803Z,2.70
2017-09-06T19:52:33.277Z,2.80
2017-09-06T19:55:00.907Z,2.57
2017-09-06T19:57:28.375Z,2.90
2017-09-06T19:59:55.889Z,2.40
2017-09-06T20:02:24.139Z,2.90
2017-09-06T20:04:51.627Z,2.97
2017-09-06T20:07:19.078Z,2.43
2017-09-06T20:09:46.553Z,2.80
2017-09-06T20:12:14.059Z,2.83
2017-09-06T20:14:41.536Z,2.83
2017-09-06T20:17:09.060Z,2.97
2017-09-06T20:19:36.543Z,2.77
2017-09-06T20:22:04.059Z,2.33
2017-09-06T20:24:31.526Z,2.90
2017-09-06T20:26:58.996Z,2.53
2017-09-06T20:29:26.511Z,2.70
2017-09-06T20:31:53.979Z,3.20
2017-09-06T20:34:21.453Z,2.53
2017-09-06T20:36:48.950Z,2.60
2017-09-06T20:39:16.535Z,2.90
2017-09-06T20:41:44.055Z,2.90
2017-09-06T20:44:11.563Z,2.50
2017-09-06T20:46:39.060Z,3.30
2017-09-06T20:49:06.570Z,2.63
2017-09-06T20:51:34.806Z,2.67
2017-09-06T20:54:02.269Z,2.90
2017-09-06T20:56:29.771Z,2.63
2017-09-06T20:58:57.246Z,3.00
2017-09-06T21:01:24.728Z,3.27
2017-09-06T21:03:52.233Z,3.20
2017-09-06T21:06:19.695Z,2.40
2017-09-06T21:08:47.200Z,2.90
2017-09-06T21:11:14.659Z,3.07
2017-09-06T21:13:42.168Z,3.07
2017-09-06T21:16:09.646Z,2.90
2017-09-06T21:18:37.149Z,3.40
2017-09-06T21:21:04.659Z,3.53
2017-09-06T21:23:32.914Z,3.13
2017-09-06T21:26:00.426Z,3.50
2017-09-06T21:28:27.900Z,2.83
2017-09-06T21:30:55.368Z,2.80
2017-09-06T21:33:22.859Z,2.90
2017-09-06T21:35:50.329Z,3.20
2017-09-06T21:38:17.840Z,2.87
2017-09-06T21:40:45.314Z,2.80
2017-09-06T21:43:12.852Z,2.50
2017-09-06T21:45:40.369Z,3.70
2017-09-06T21:48:07.834Z,2.90
2017-09-06T21:50:35.371Z,3.40
2017-09-06T21:53:02.842Z,2.73
2017-09-06T21:55:30.315Z,3.13
2017-09-06T21:57:57.819Z,3.53
2017-09-06T22:00:25.290Z,3.00
2017-09-06T22:02:52.783Z,2.93
2017-09-06T22:05:20.271Z,3.00
2017-09-06T22:07:47.767Z,2.83
2017-09-06T22:10:15.302Z,2.80
2017-09-06T22:12:42.772Z,2.77
2017-09-06T22:15:10.279Z,3.43
2017-09-06T22:17:37.756Z,2.63
2017-09-06T22:20:05.244Z,2.70
2017-09-06T22:22:32.741Z,3.10
2017-09-06T22:25:00.995Z,2.93
2017-09-06T22:27:28.460Z,3.67
2017-09-06T22:30:26.653Z,3.40
2017-09-06T22:32:54.898Z,3.57
2017-09-06T22:35:22.390Z,3.00
2017-09-06T22:37:50.619Z,3.23
2017-09-06T22:40:18.120Z,3.67
2017-09-06T22:42:46.352Z,3.40
2017-09-06T22:45:13.855Z,3.20
2017-09-06T22:47:41.351Z,3.20
2017-09-06T22:50:08.811Z,3.20
2017-09-06T22:52:36.315Z,3.90
2017-09-06T22:55:03.791Z,4.60
2017-09-06T22:57:32.058Z,4.30
2017-09-06T23:00:00.362Z,3.50
2017-09-06T23:02:28.566Z,4.23
2017-09-06T23:04:56.080Z,4.00
2017-09-06T23:07:23.540Z,4.27
2017-09-06T23:09:51.014Z,4.87
2017-09-06T23:12:18.509Z,3.90
2017-09-06T23:14:45.980Z,4.37
2017-09-06T23:17:13.474Z,4.53
2017-09-06T23:19:41.711Z,4.27
2017-09-06T23:22:09.200Z,5.37
2017-09-06T23:24:37.456Z,4.47
2017-09-06T23:27:05.707Z,5.17
2017-09-06T23:29:33.179Z,4.20
2017-09-06T23:32:00.690Z,3.50
2017-09-06T23:34:29.183Z,2.50
2017-09-06T23:36:56.683Z,2.97
2017-09-06T23:39:24.211Z,3.00
2017-09-06T23:41:51.679Z,3.10
2017-09-06T23:44:19.209Z,2.67
2017-09-06T23:46:46.690Z,2.50
2017-09-06T23:49:14.154Z,2.37
2017-09-06T23:51:41.656Z,2.50
2017-09-06T23:54:09.148Z,3.00
2017-09-06T23:56:36.635Z,2.97
2017-09-06T23:59:04.097Z,2.93
